sensor_id;sensor_type;location;lat;lon;timestamp;pressure;altitude;pressure_sealevel;temperature;humidity
1736;BME280;865;53.672;10.250;2022-12-20T00:01:28;101019.38;;;4.76;100.00
1736;BME280;865;53.672;10.250;2022-12-20T00:03:58;101028.00;;;4.78;100.00
1736;BME280;865;53.672;10.250;2022-12-20T00:06:25;101028.03;;;4.83;100.00
1736;BME280;865;53.672;10.250;2022-12-20T00:08:57;101025.38;;;4.75;100.00
1736;BME280;865;53.672;10.250;2022-12-20T00:11:25;101025.41;;;4.78;100.00
1736;BME280;865;53.672;10.250;2022-12-20T00:13:52;101016.78;;;4.78;100.00
1736;BME280;865;53.672;10.250;2022-12-20T00:16:21;101002.28;;;4.92;100.00
1736;BME280;865;53.672;10.250;2022-12-20T00:18:52;101003.13;;;4.91;100.00
1736;BME280;865;53.672;10.250;2022-12-20T00:21:19;101005.72;;;4.91;100.00
1736;BME280;865;53.672;10.250;2022-12-20T00:23:45;101000.50;;;4.87;100.00
1736;BME280;865;53.672;10.250;2022-12-20T00:26:14;101008.31;;;4.91;100.00
1736;BME280;865;53.672;10.250;2022-12-20T00:28:42;101009.19;;;4.95;100.00
1736;BME280;865;53.672;10.250;2022-12-20T00:31:09;101012.56;;;4.88;100.00
1736;BME280;865;53.672;10.250;2022-12-20T00:33:36;101011.75;;;4.92;100.00
1736;BME280;865;53.672;10.250;2022-12-20T00:36:05;101007.47;;;4.95;100.00
1736;BME280;865;53.672;10.250;2022-12-20T00:38:32;101005.72;;;4.93;100.00
1736;BME280;865;53.672;10.250;2022-12-20T00:41:00;101008.38;;;5.00;100.00
1736;BME280;865;53.672;10.250;2022-12-20T00:43:27;101013.50;;;4.96;100.00
1736;BME280;865;53.672;10.250;2022-12-20T00:45:54;101000.59;;;5.02;100.00
1736;BME280;865;53.672;10.250;2022-12-20T00:48:20;101001.47;;;5.06;100.00
1736;BME280;865;53.672;10.250;2022-12-20T00:50:47;101000.66;;;5.08;100.00
1736;BME280;865;53.672;10.250;2022-12-20T00:53:13;100995.44;;;5.05;100.00
1736;BME280;865;53.672;10.250;2022-12-20T00:55:45;100986.88;;;5.09;100.00
1736;BME280;865;53.672;10.250;2022-12-20T00:58:12;100986.84;;;5.08;100.00
1736;BME280;865;53.672;10.250;2022-12-20T01:00:38;100990.31;;;5.11;100.00
1736;BME280;865;53.672;10.250;2022-12-20T01:03:05;100988.63;;;5.12;100.00
1736;BME280;865;53.672;10.250;2022-12-20T01:05:32;100982.59;;;5.16;100.00
1736;BME280;865;53.672;10.250;2022-12-20T01:07:59;100981.75;;;5.20;100.00
1736;BME280;865;53.672;10.250;2022-12-20T01:10:25;100970.59;;;5.25;100.00
1736;BME280;865;53.672;10.250;2022-12-20T01:12:52;100972.28;;;5.19;100.00
1736;BME280;865;53.672;10.250;2022-12-20T01:15:19;100968.00;;;5.22;100.00
1736;BME280;865;53.672;10.250;2022-12-20T01:17:46;100976.56;;;5.15;100.00
1736;BME280;865;53.672;10.250;2022-12-20T01:20:13;100982.59;;;5.13;100.00
1736;BME280;865;53.672;10.250;2022-12-20T01:22:39;100974.00;;;5.20;100.00
1736;BME280;865;53.672;10.250;2022-12-20T01:25:12;100977.41;;;5.14;100.00
1736;BME280;865;53.672;10.250;2022-12-20T01:27:39;100986.91;;;5.14;100.00
1736;BME280;865;53.672;10.250;2022-12-20T01:30:05;100985.13;;;5.08;100.00
1736;BME280;865;53.672;10.250;2022-12-20T01:32:32;100977.41;;;5.13;100.00
1736;BME280;865;53.672;10.250;2022-12-20T01:34:58;100987.81;;;5.22;100.00
1736;BME280;865;53.672;10.250;2022-12-20T01:37:25;100981.78;;;5.23;100.00
1736;BME280;865;53.672;10.250;2022-12-20T01:39:51;100983.56;;;5.30;100.00
1736;BME280;865;53.672;10.250;2022-12-20T01:42:17;100985.28;;;5.30;100.00
1736;BME280;865;53.672;10.250;2022-12-20T01:47:11;100975.84;;;5.36;100.00
1736;BME280;865;53.672;10.250;2022-12-20T01:49:41;100975.84;;;5.44;100.00
1736;BME280;865;53.672;10.250;2022-12-20T01:52:20;100982.78;;;5.45;100.00
1736;BME280;865;53.672;10.250;2022-12-20T01:54:52;100976.75;;;5.49;100.00
1736;BME280;865;53.672;10.250;2022-12-20T01:57:26;100963.84;;;5.51;100.00
1736;BME280;865;53.672;10.250;2022-12-20T01:59:55;100970.75;;;5.58;100.00
1736;BME280;865;53.672;10.250;2022-12-20T02:02:22;100963.84;;;5.58;100.00
1736;BME280;865;53.672;10.250;2022-12-20T02:04:50;100961.25;;;5.55;100.00
1736;BME280;865;53.672;10.250;2022-12-20T02:07:20;100957.81;;;5.55;100.00
1736;BME280;865;53.672;10.250;2022-12-20T02:09:50;100963.00;;;5.61;100.00
1736;BME280;865;53.672;10.250;2022-12-20T02:12:23;100967.34;;;5.68;100.00
1736;BME280;865;53.672;10.250;2022-12-20T02:15:18;100964.78;;;5.69;100.00
1736;BME280;865;53.672;10.250;2022-12-20T02:20:44;100967.38;;;5.74;100.00
1736;BME280;865;53.672;10.250;2022-12-20T02:29:24;100967.41;;;5.80;100.00
1736;BME280;865;53.672;10.250;2022-12-20T02:32:18;100959.63;;;5.79;100.00
1736;BME280;865;53.672;10.250;2022-12-20T02:34:48;100946.72;;;5.80;100.00
1736;BME280;865;53.672;10.250;2022-12-20T02:37:16;100949.25;;;5.76;100.00
1736;BME280;865;53.672;10.250;2022-12-20T02:39:43;100959.66;;;5.83;100.00
1736;BME280;865;53.672;10.250;2022-12-20T02:42:14;100947.56;;;5.88;100.00
1736;BME280;865;53.672;10.250;2022-12-20T02:45:05;100943.31;;;5.95;100.00
1736;BME280;865;53.672;10.250;2022-12-20T02:47:51;100941.59;;;5.99;100.00
1736;BME280;865;53.672;10.250;2022-12-20T02:50:22;100949.34;;;6.00;100.00
1736;BME280;865;53.672;10.250;2022-12-20T02:52:52;100936.38;;;5.92;100.00
1736;BME280;865;53.672;10.250;2022-12-20T02:55:24;100932.09;;;5.93;100.00
1736;BME280;865;53.672;10.250;2022-12-20T02:58:01;100926.06;;;5.99;100.00
1736;BME280;865;53.672;10.250;2022-12-20T03:00:33;100934.69;;;5.93;100.00
1736;BME280;865;53.672;10.250;2022-12-20T03:03:04;100936.44;;;6.02;100.00
1736;BME280;865;53.672;10.250;2022-12-20T03:05:52;100926.09;;;6.08;100.00
1736;BME280;865;53.672;10.250;2022-12-20T03:08:20;100939.88;;;6.08;100.00
1736;BME280;865;53.672;10.250;2022-12-20T03:10:48;100925.22;;;6.13;100.00
1736;BME280;865;53.672;10.250;2022-12-20T03:13:15;100924.31;;;6.04;100.00
1736;BME280;865;53.672;10.250;2022-12-20T03:15:42;100927.81;;;6.01;100.00
1736;BME280;865;53.672;10.250;2022-12-20T03:18:08;100928.66;;;6.08;100.00
1736;BME280;865;53.672;10.250;2022-12-20T03:20:36;100935.56;;;6.12;100.00
1736;BME280;865;53.672;10.250;2022-12-20T03:23:03;100930.41;;;6.18;100.00
1736;BME280;865;53.672;10.250;2022-12-20T03:25:29;100934.75;;;6.25;100.00
1736;BME280;865;53.672;10.250;2022-12-20T03:27:55;100920.91;;;6.23;100.00
1736;BME280;865;53.672;10.250;2022-12-20T03:30:22;100933.84;;;6.15;100.00
1736;BME280;865;53.672;10.250;2022-12-20T03:32:48;100932.13;;;6.21;100.00
1736;BME280;865;53.672;10.250;2022-12-20T03:35:15;100934.75;;;6.22;100.00
1736;BME280;865;53.672;10.250;2022-12-20T03:37:41;100937.31;;;6.30;100.00
1736;BME280;865;53.672;10.250;2022-12-20T03:40:08;100935.59;;;6.30;100.00
1736;BME280;865;53.672;10.250;2022-12-20T03:42:35;100928.69;;;6.38;100.00
1736;BME280;865;53.672;10.250;2022-12-20T03:45:02;100922.63;;;6.36;100.00
1736;BME280;865;53.672;10.250;2022-12-20T03:47:31;100926.97;;;6.44;100.00
1736;BME280;865;53.672;10.250;2022-12-20T03:49:57;100932.16;;;6.44;100.00
1736;BME280;865;53.672;10.250;2022-12-20T03:52:25;100933.03;;;6.43;100.00
1736;BME280;865;53.672;10.250;2022-12-20T03:54:52;100940.81;;;6.43;100.00
1736;BME280;865;53.672;10.250;2022-12-20T03:57:18;100941.66;;;6.42;100.00
1736;BME280;865;53.672;10.250;2022-12-20T03:59:44;100941.66;;;6.49;100.00
1736;BME280;865;53.672;10.250;2022-12-20T04:02:11;100938.22;;;6.49;100.00
1736;BME280;865;53.672;10.250;2022-12-20T04:04:38;100926.97;;;6.50;100.00
1736;BME280;865;53.672;10.250;2022-12-20T04:07:04;100923.53;;;6.55;100.00
1736;BME280;865;53.672;10.250;2022-12-20T04:09:30;100915.75;;;6.40;100.00
1736;BME280;865;53.672;10.250;2022-12-20T04:11:57;100923.50;;;6.42;100.00
1736;BME280;865;53.672;10.250;2022-12-20T04:14:23;100926.09;;;6.51;100.00
1736;BME280;865;53.672;10.250;2022-12-20T04:16:49;100923.50;;;6.54;100.00
1736;BME280;865;53.672;10.250;2022-12-20T04:19:16;100919.22;;;6.57;100.00
1736;BME280;865;53.672;10.250;2022-12-20T04:21:42;100917.47;;;6.61;100.00
1736;BME280;865;53.672;10.250;2022-12-20T04:24:09;100920.06;;;6.56;100.00
1736;BME280;865;53.672;10.250;2022-12-20T04:26:36;100920.06;;;6.53;100.00
1736;BME280;865;53.672;10.250;2022-12-20T04:29:02;100917.47;;;6.56;100.00
1736;BME280;865;53.672;10.250;2022-12-20T04:31:30;100911.41;;;6.62;100.00
1736;BME280;865;53.672;10.250;2022-12-20T04:33:56;100914.88;;;6.59;100.00
1736;BME280;865;53.672;10.250;2022-12-20T04:36:23;100913.16;;;6.65;100.00
1736;BME280;865;53.672;10.250;2022-12-20T04:38:50;100906.22;;;6.62;100.00
1736;BME280;865;53.672;10.250;2022-12-20T04:41:16;100910.53;;;6.63;100.00
1736;BME280;865;53.672;10.250;2022-12-20T04:43:54;100905.34;;;6.66;100.00
1736;BME280;865;53.672;10.250;2022-12-20T04:46:24;100898.47;;;6.67;100.00
1736;BME280;865;53.672;10.250;2022-12-20T04:48:51;100903.63;;;6.71;100.00
1736;BME280;865;53.672;10.250;2022-12-20T04:51:24;100904.50;;;6.76;100.00
1736;BME280;865;53.672;10.250;2022-12-20T04:53:51;100893.25;;;6.77;100.00
1736;BME280;865;53.672;10.250;2022-12-20T04:56:27;100899.31;;;6.79;100.00
1736;BME280;865;53.672;10.250;2022-12-20T04:58:55;100899.28;;;6.72;100.00
1736;BME280;865;53.672;10.250;2022-12-20T05:01:22;100902.75;;;6.74;100.00
1736;BME280;865;53.672;10.250;2022-12-20T05:03:48;100906.25;;;6.70;100.00
1736;BME280;865;53.672;10.250;2022-12-20T05:06:15;100903.66;;;6.64;100.00
1736;BME280;865;53.672;10.250;2022-12-20T05:08:42;100902.78;;;6.65;100.00
1736;BME280;865;53.672;10.250;2022-12-20T05:11:08;100901.91;;;6.62;100.00
1736;BME280;865;53.672;10.250;2022-12-20T05:13:35;100911.41;;;6.59;100.00
1736;BME280;865;53.672;10.250;2022-12-20T05:16:01;100910.53;;;6.57;100.00
1736;BME280;865;53.672;10.250;2022-12-20T05:18:28;100908.81;;;6.59;100.00
1736;BME280;865;53.672;10.250;2022-12-20T05:20:57;100907.09;;;6.62;100.00
1736;BME280;865;53.672;10.250;2022-12-20T05:23:42;100914.00;;;6.68;100.00
1736;BME280;865;53.672;10.250;2022-12-20T05:26:30;100915.75;;;6.58;100.00
1736;BME280;865;53.672;10.250;2022-12-20T05:28:57;100907.97;;;6.65;100.00
1736;BME280;865;53.672;10.250;2022-12-20T05:31:24;100904.53;;;6.55;100.00
1736;BME280;865;53.672;10.250;2022-12-20T05:33:50;100906.22;;;6.51;100.00
1736;BME280;865;53.672;10.250;2022-12-20T05:36:16;100903.63;;;6.51;100.00
1736;BME280;865;53.672;10.250;2022-12-20T05:38:43;100907.09;;;6.53;100.00
1736;BME280;865;53.672;10.250;2022-12-20T05:41:09;100907.13;;;6.58;100.00
1736;BME280;865;53.672;10.250;2022-12-20T05:43:36;100901.03;;;6.51;100.00
1736;BME280;865;53.672;10.250;2022-12-20T05:46:02;100901.06;;;6.47;100.00
1736;BME280;865;53.672;10.250;2022-12-20T05:48:29;100894.16;;;6.41;100.00
1736;BME280;865;53.672;10.250;2022-12-20T05:50:55;100890.69;;;6.44;100.00
1736;BME280;865;53.672;10.250;2022-12-20T05:53:22;100890.69;;;6.48;100.00
1736;BME280;865;53.672;10.250;2022-12-20T05:55:51;100892.44;;;6.43;100.00
1736;BME280;865;53.672;10.250;2022-12-20T05:58:17;100881.19;;;6.38;100.00
1736;BME280;865;53.672;10.250;2022-12-20T06:00:44;100884.66;;;6.29;100.00
1736;BME280;865;53.672;10.250;2022-12-20T06:03:13;100889.84;;;6.32;100.00
1736;BME280;865;53.672;10.250;2022-12-20T06:05:43;100888.97;;;6.30;100.00
1736;BME280;865;53.672;10.250;2022-12-20T06:08:11;100886.38;;;6.33;100.00
1736;BME280;865;53.672;10.250;2022-12-20T06:10:38;100889.84;;;6.26;100.00
1736;BME280;865;53.672;10.250;2022-12-20T06:13:06;100887.25;;;6.29;100.00
1736;BME280;865;53.672;10.250;2022-12-20T06:15:33;100883.78;;;6.23;100.00
1736;BME280;865;53.672;10.250;2022-12-20T06:17:59;100891.53;;;6.21;100.00
1736;BME280;865;53.672;10.250;2022-12-20T06:20:26;100892.44;;;6.28;100.00
1736;BME280;865;53.672;10.250;2022-12-20T06:22:53;100906.22;;;6.30;100.00
1736;BME280;865;53.672;10.250;2022-12-20T06:25:20;100906.25;;;6.10;100.00
1736;BME280;865;53.672;10.250;2022-12-20T06:27:46;100921.75;;;6.14;100.00
1736;BME280;865;53.672;10.250;2022-12-20T06:30:13;100920.91;;;6.11;100.00
1736;BME280;865;53.672;10.250;2022-12-20T06:32:39;100921.75;;;6.11;100.00
1736;BME280;865;53.672;10.250;2022-12-20T06:35:06;100914.84;;;6.09;100.00
1736;BME280;865;53.672;10.250;2022-12-20T06:37:32;100914.00;;;6.08;100.00
1736;BME280;865;53.672;10.250;2022-12-20T06:39:59;100914.00;;;6.10;100.00
1736;BME280;865;53.672;10.250;2022-12-20T06:42:25;100912.25;;;6.09;100.00
1736;BME280;865;53.672;10.250;2022-12-20T06:44:52;100906.22;;;6.02;100.00
1736;BME280;865;53.672;10.250;2022-12-20T06:47:18;100899.31;;;6.04;100.00
1736;BME280;865;53.672;10.250;2022-12-20T06:49:45;100891.53;;;6.06;100.00
1736;BME280;865;53.672;10.250;2022-12-20T06:52:11;100895.88;;;6.07;100.00
1736;BME280;865;53.672;10.250;2022-12-20T06:54:38;100882.91;;;6.04;100.00
1736;BME280;865;53.672;10.250;2022-12-20T06:57:04;100881.19;;;6.00;100.00
1736;BME280;865;53.672;10.250;2022-12-20T06:59:31;100882.91;;;6.01;100.00
1736;BME280;865;53.672;10.250;2022-12-20T07:01:58;100878.59;;;6.04;100.00
1736;BME280;865;53.672;10.250;2022-12-20T07:04:25;100879.47;;;6.08;100.00
1736;BME280;865;53.672;10.250;2022-12-20T07:06:51;100887.25;;;6.14;100.00
1736;BME280;865;53.672;10.250;2022-12-20T07:09:18;100898.47;;;6.22;100.00
1736;BME280;865;53.672;10.250;2022-12-20T07:11:44;100897.63;;;6.22;100.00
1736;BME280;865;53.672;10.250;2022-12-20T07:14:12;100901.91;;;6.21;100.00
1736;BME280;865;53.672;10.250;2022-12-20T07:16:38;100899.34;;;6.23;100.00
1736;BME280;865;53.672;10.250;2022-12-20T07:19:13;100895.88;;;6.30;100.00
1736;BME280;865;53.672;10.250;2022-12-20T07:21:41;100892.41;;;6.26;100.00
1736;BME280;865;53.672;10.250;2022-12-20T07:24:08;100899.31;;;6.30;100.00
1736;BME280;865;53.672;10.250;2022-12-20T07:26:35;100902.78;;;6.32;100.00
1736;BME280;865;53.672;10.250;2022-12-20T07:29:02;100895.03;;;6.40;100.00
1736;BME280;865;53.672;10.250;2022-12-20T07:31:29;100899.34;;;6.44;100.00
1736;BME280;865;53.672;10.250;2022-12-20T07:33:55;100916.59;;;6.48;100.00
1736;BME280;865;53.672;10.250;2022-12-20T07:36:22;100914.91;;;6.52;100.00
1736;BME280;865;53.672;10.250;2022-12-20T07:38:48;100910.53;;;6.57;100.00
1736;BME280;865;53.672;10.250;2022-12-20T07:41:16;100912.28;;;6.53;100.00
1736;BME280;865;53.672;10.250;2022-12-20T07:43:43;100916.63;;;6.54;100.00
1736;BME280;865;53.672;10.250;2022-12-20T07:46:12;100912.28;;;6.61;100.00
1736;BME280;865;53.672;10.250;2022-12-20T07:48:39;100907.97;;;6.58;100.00
1736;BME280;865;53.672;10.250;2022-12-20T07:51:16;100900.19;;;6.60;100.00
1736;BME280;865;53.672;10.250;2022-12-20T07:53:55;100901.06;;;6.60;100.00
1736;BME280;865;53.672;10.250;2022-12-20T07:56:24;100897.56;;;6.74;100.00
1736;BME280;865;53.672;10.250;2022-12-20T07:58:54;100894.13;;;6.69;100.00
1736;BME280;865;53.672;10.250;2022-12-20T08:01:25;100897.59;;;6.63;100.00
1736;BME280;865;53.672;10.250;2022-12-20T08:03:59;100899.34;;;6.55;100.00
1736;BME280;865;53.672;10.250;2022-12-20T08:06:28;100895.00;;;6.60;100.00
1736;BME280;865;53.672;10.250;2022-12-20T08:08:57;100885.50;;;6.64;100.00
1736;BME280;865;53.672;10.250;2022-12-20T08:11:26;100882.03;;;6.66;100.00
1736;BME280;865;53.672;10.250;2022-12-20T08:13:54;100882.91;;;6.59;100.00
1736;BME280;865;53.672;10.250;2022-12-20T08:16:24;100888.97;;;6.61;100.00
1736;BME280;865;53.672;10.250;2022-12-20T08:18:51;100876.00;;;6.61;100.00
1736;BME280;865;53.672;10.250;2022-12-20T08:21:17;100879.44;;;6.60;100.00
1736;BME280;865;53.672;10.250;2022-12-20T08:23:44;100879.44;;;6.66;100.00
1736;BME280;865;53.672;10.250;2022-12-20T08:26:10;100882.91;;;6.50;100.00
1736;BME280;865;53.672;10.250;2022-12-20T08:28:37;100890.69;;;6.60;100.00
1736;BME280;865;53.672;10.250;2022-12-20T08:31:05;100881.19;;;6.52;100.00
1736;BME280;865;53.672;10.250;2022-12-20T08:33:33;100874.25;;;6.57;100.00
1736;BME280;865;53.672;10.250;2022-12-20T08:36:04;100867.38;;;6.54;100.00
1736;BME280;865;53.672;10.250;2022-12-20T08:38:32;100857.00;;;6.57;100.00
1736;BME280;865;53.672;10.250;2022-12-20T08:41:06;100850.94;;;6.63;100.00
1736;BME280;865;53.672;10.250;2022-12-20T08:43:33;100855.28;;;6.58;100.00
1736;BME280;865;53.672;10.250;2022-12-20T08:45:59;100856.13;;;6.61;100.00
1736;BME280;865;53.672;10.250;2022-12-20T08:48:26;100857.00;;;6.59;100.00
1736;BME280;865;53.672;10.250;2022-12-20T08:50:59;100847.50;;;6.61;100.00
1736;BME280;865;53.672;10.250;2022-12-20T08:53:27;100855.25;;;6.64;100.00
1736;BME280;865;53.672;10.250;2022-12-20T08:55:58;100856.97;;;6.65;100.00
1736;BME280;865;53.672;10.250;2022-12-20T08:58:27;100856.13;;;6.75;100.00
1736;BME280;865;53.672;10.250;2022-12-20T09:00:57;100858.69;;;6.78;100.00
1736;BME280;865;53.672;10.250;2022-12-20T09:03:32;100856.94;;;6.83;100.00
1736;BME280;865;53.672;10.250;2022-12-20T09:05:58;100850.88;;;6.88;100.00
1736;BME280;865;53.672;10.250;2022-12-20T09:08:25;100851.72;;;6.90;100.00
1736;BME280;865;53.672;10.250;2022-12-20T09:10:52;100846.56;;;6.80;100.00
1736;BME280;865;53.672;10.250;2022-12-20T09:13:20;100844.84;;;6.82;100.00
1736;BME280;865;53.672;10.250;2022-12-20T09:15:46;100841.41;;;6.79;100.00
1736;BME280;865;53.672;10.250;2022-12-20T09:18:13;100835.34;;;6.84;100.00
1736;BME280;865;53.672;10.250;2022-12-20T09:20:43;100826.69;;;6.93;100.00
1736;BME280;865;53.672;10.250;2022-12-20T09:23:10;100843.94;;;6.97;100.00
1736;BME280;865;53.672;10.250;2022-12-20T09:25:37;100834.44;;;6.95;100.00
1736;BME280;865;53.672;10.250;2022-12-20T09:28:04;100832.69;;;6.95;100.00
1736;BME280;865;53.672;10.250;2022-12-20T09:30:31;100848.25;;;7.00;100.00
1736;BME280;865;53.672;10.250;2022-12-20T09:32:58;100853.41;;;7.12;100.00
1736;BME280;865;53.672;10.250;2022-12-20T09:35:36;100851.66;;;7.13;100.00
1736;BME280;865;53.672;10.250;2022-12-20T09:38:03;100845.63;;;7.09;100.00
1736;BME280;865;53.672;10.250;2022-12-20T09:40:31;100837.78;;;7.17;100.00
1736;BME280;865;53.672;10.250;2022-12-20T09:42:58;100841.28;;;7.17;100.00
1736;BME280;865;53.672;10.250;2022-12-20T09:45:27;100843.84;;;7.20;100.00
1736;BME280;865;53.672;10.250;2022-12-20T09:47:54;100843.81;;;7.25;100.00
1736;BME280;865;53.672;10.250;2022-12-20T09:50:41;100845.53;;;7.30;100.00
1736;BME280;865;53.672;10.250;2022-12-20T09:53:27;100842.94;;;7.30;100.00
1736;BME280;865;53.672;10.250;2022-12-20T09:56:09;100844.72;;;7.21;100.00
1736;BME280;865;53.672;10.250;2022-12-20T09:59:17;100837.75;;;7.30;100.00
1736;BME280;865;53.672;10.250;2022-12-20T10:01:45;100839.44;;;7.41;100.00
1736;BME280;865;53.672;10.250;2022-12-20T10:04:32;100837.66;;;7.46;100.00
1736;BME280;865;53.672;10.250;2022-12-20T10:15:19;100835.06;;;7.50;100.00
1736;BME280;865;53.672;10.250;2022-12-20T10:25:58;100814.19;;;7.66;100.00
1736;BME280;865;53.672;10.250;2022-12-20T10:28:27;100803.88;;;7.55;100.00
1736;BME280;865;53.672;10.250;2022-12-20T10:30:59;100806.41;;;7.61;100.00
1736;BME280;865;53.672;10.250;2022-12-20T10:33:27;100805.53;;;7.67;100.00
1736;BME280;865;53.672;10.250;2022-12-20T10:35:54;100802.94;;;7.68;100.00
1736;BME280;865;53.672;10.250;2022-12-20T10:38:21;100802.91;;;7.71;100.00
1736;BME280;865;53.672;10.250;2022-12-20T10:41:10;100797.66;;;7.81;100.00
1736;BME280;865;53.672;10.250;2022-12-20T10:43:53;100796.72;;;7.85;100.00
1736;BME280;865;53.672;10.250;2022-12-20T10:46:21;100783.78;;;7.82;100.00
1736;BME280;865;53.672;10.250;2022-12-20T10:48:49;100772.56;;;7.75;100.00
1736;BME280;865;53.672;10.250;2022-12-20T10:51:20;100766.47;;;7.85;100.00
1736;BME280;865;53.672;10.250;2022-12-20T10:54:01;100767.28;;;7.87;100.00
1736;BME280;865;53.672;10.250;2022-12-20T10:56:30;100766.28;;;8.02;100.00
1736;BME280;865;53.672;10.250;2022-12-20T10:59:21;100769.78;;;7.99;100.00
1736;BME280;865;53.672;10.250;2022-12-20T11:01:49;100768.09;;;7.94;100.00
1736;BME280;865;53.672;10.250;2022-12-20T11:04:30;100761.97;;;7.99;100.00
1736;BME280;865;53.672;10.250;2022-12-20T11:07:00;100766.25;;;8.05;100.00
1736;BME280;865;53.672;10.250;2022-12-20T11:12:11;100753.38;;;7.93;100.00
1736;BME280;865;53.672;10.250;2022-12-20T11:14:42;100752.44;;;8.00;100.00
1736;BME280;865;53.672;10.250;2022-12-20T11:17:29;100749.88;;;7.98;100.00
1736;BME280;865;53.672;10.250;2022-12-20T11:20:40;100756.84;;;7.95;100.00
1736;BME280;865;53.672;10.250;2022-12-20T11:23:21;100744.72;;;7.95;100.00
1736;BME280;865;53.672;10.250;2022-12-20T11:26:22;100743.84;;;7.98;100.00
1736;BME280;865;53.672;10.250;2022-12-20T11:37:50;100722.09;;;8.07;100.00
1736;BME280;865;53.672;10.250;2022-12-20T11:40:32;100717.69;;;8.13;100.00
1736;BME280;865;53.672;10.250;2022-12-20T11:43:25;100708.91;;;8.23;100.00
1736;BME280;865;53.672;10.250;2022-12-20T11:46:57;100701.28;;;8.10;100.00
1736;BME280;865;53.672;10.250;2022-12-20T11:51:46;100689.16;;;8.09;100.00
1736;BME280;865;53.672;10.250;2022-12-20T11:54:25;100684.72;;;8.21;100.00
1736;BME280;865;53.672;10.250;2022-12-20T11:57:02;100680.38;;;8.22;100.00
1736;BME280;865;53.672;10.250;2022-12-20T11:59:38;100681.31;;;8.13;100.00
1736;BME280;865;53.672;10.250;2022-12-20T12:02:11;100683.13;;;8.07;100.00
1736;BME280;865;53.672;10.250;2022-12-20T12:04:47;100677.09;;;8.05;100.00
1736;BME280;865;53.672;10.250;2022-12-20T12:07:19;100675.38;;;8.04;100.00
1736;BME280;865;53.672;10.250;2022-12-20T12:09:58;100675.38;;;8.02;100.00
1736;BME280;865;53.672;10.250;2022-12-20T12:12:37;100684.78;;;8.14;100.00
1736;BME280;865;53.672;10.250;2022-12-20T12:15:22;100684.88;;;8.05;100.00
1736;BME280;865;53.672;10.250;2022-12-20T12:20:31;100685.78;;;8.04;100.00
1736;BME280;865;53.672;10.250;2022-12-20T12:26:12;100674.53;;;8.00;100.00
1736;BME280;865;53.672;10.250;2022-12-20T12:28:41;100674.53;;;8.02;100.00
1736;BME280;865;53.672;10.250;2022-12-20T12:31:15;100684.06;;;7.99;100.00
1736;BME280;865;53.672;10.250;2022-12-20T12:34:01;100680.66;;;7.93;100.00
1736;BME280;865;53.672;10.250;2022-12-20T12:40:02;100682.44;;;7.89;100.00
1736;BME280;865;53.672;10.250;2022-12-20T12:45:42;100678.97;;;7.90;100.00
1736;BME280;865;53.672;10.250;2022-12-20T12:50:42;100674.69;;;7.85;100.00
1736;BME280;865;53.672;10.250;2022-12-20T12:53:31;100655.66;;;7.84;100.00
1736;BME280;865;53.672;10.250;2022-12-20T12:56:28;100652.28;;;7.73;100.00
1736;BME280;865;53.672;10.250;2022-12-20T13:01:48;100649.59;;;7.85;100.00
1736;BME280;865;53.672;10.250;2022-12-20T13:07:03;100650.47;;;7.81;100.00
1736;BME280;865;53.672;10.250;2022-12-20T13:09:48;100643.50;;;7.86;100.00
1736;BME280;865;53.672;10.250;2022-12-20T13:17:54;100626.19;;;7.88;100.00
1736;BME280;865;53.672;10.250;2022-12-20T13:20:30;100625.31;;;7.89;100.00
1736;BME280;865;53.672;10.250;2022-12-20T13:25:46;100626.94;;;7.98;100.00
1736;BME280;865;53.672;10.250;2022-12-20T13:33:45;100619.22;;;7.90;100.00
1736;BME280;865;53.672;10.250;2022-12-20T13:38:55;100626.13;;;7.93;100.00
1736;BME280;865;53.672;10.250;2022-12-20T13:41:40;100621.78;;;7.93;100.00
1736;BME280;865;53.672;10.250;2022-12-20T13:44:27;100631.28;;;7.96;100.00
1736;BME280;865;53.672;10.250;2022-12-20T13:49:38;100635.69;;;7.88;100.00
1736;BME280;865;53.672;10.250;2022-12-20T13:52:26;100641.78;;;7.87;100.00
1736;BME280;865;53.672;10.250;2022-12-20T13:54:56;100648.69;;;7.88;100.00
1736;BME280;865;53.672;10.250;2022-12-20T13:57:30;100649.59;;;7.84;100.00
1736;BME280;865;53.672;10.250;2022-12-20T14:00:00;100654.00;;;7.77;100.00
1736;BME280;865;53.672;10.250;2022-12-20T14:02:35;100654.00;;;7.75;100.00
1736;BME280;865;53.672;10.250;2022-12-20T14:05:12;100657.50;;;7.71;100.00
1736;BME280;865;53.672;10.250;2022-12-20T14:07:40;100654.09;;;7.68;100.00
1736;BME280;865;53.672;10.250;2022-12-20T14:10:22;100660.19;;;7.62;100.00
1736;BME280;865;53.672;10.250;2022-12-20T14:12:52;100664.44;;;7.69;100.00
1736;BME280;865;53.672;10.250;2022-12-20T14:15:23;100668.75;;;7.73;100.00
1736;BME280;865;53.672;10.250;2022-12-20T14:17:51;100667.13;;;7.60;100.00
1736;BME280;865;53.672;10.250;2022-12-20T14:20:23;100662.81;;;7.59;100.00
1736;BME280;865;53.672;10.250;2022-12-20T14:22:55;100661.88;;;7.66;100.00
1736;BME280;865;53.672;10.250;2022-12-20T14:25:51;100667.06;;;7.68;100.00
1736;BME280;865;53.672;10.250;2022-12-20T14:30:58;100662.72;;;7.68;100.00
1736;BME280;865;53.672;10.250;2022-12-20T14:33:37;100661.91;;;7.65;100.00
1736;BME280;865;53.672;10.250;2022-12-20T14:38:46;100654.06;;;7.69;100.00
1736;BME280;865;53.672;10.250;2022-12-20T14:44:00;100644.56;;;7.68;100.00
1736;BME280;865;53.672;10.250;2022-12-20T14:46:28;100642.78;;;7.72;100.00
1736;BME280;865;53.672;10.250;2022-12-20T14:51:41;100636.66;;;7.79;100.00
1736;BME280;865;53.672;10.250;2022-12-20T14:54:26;100638.38;;;7.79;100.00
1736;BME280;865;53.672;10.250;2022-12-20T14:57:22;100625.41;;;7.79;100.00
1736;BME280;865;53.672;10.250;2022-12-20T15:08:18;100633.28;;;7.71;100.00
1736;BME280;865;53.672;10.250;2022-12-20T15:13:45;100648.00;;;7.70;100.00